Time;durP1;ratioP1;P1;durP2;ratioP2;P2;SDS_P1;SDS_P2;PMS_P1;PMS_P2;Temp;Humidity;BMP_temperature;BMP_pressure;BME280_temperature;BME280_humidity;BME280_pressure;Samples;Min_cycle;Max_cycle;Signal;HPM_P1;HPM_P2
2023/03/31 00:00:35;;;;;;;4.07;3.03;;;15.50;99.90;;;;;;10213752;29;20685;-81
2023/03/31 00:05:38;;;;;;;9.00;4.27;;;15.20;99.90;;;;;;10206896;29;20638;-81
2023/03/31 00:10:45;;;;;;;4.97;3.57;;;14.60;99.90;;;;;;10210456;29;20609;-81
2023/03/31 00:15:48;;;;;;;5.97;3.80;;;14.40;99.90;;;;;;10212166;29;20237;-81
2023/03/31 00:20:51;;;;;;;4.03;3.40;;;14.20;99.90;;;;;;10212002;29;20645;-81
2023/03/31 00:25:54;;;;;;;9.50;6.47;;;14.10;99.90;;;;;;10213514;29;20309;-81
2023/03/31 00:31:02;;;;;;;5.20;4.20;;;13.50;99.90;;;;;;10213174;29;20725;-81
2023/03/31 00:36:04;;;;;;;8.30;3.30;;;13.30;99.90;;;;;;10210670;29;20795;-81
2023/03/31 00:41:08;;;;;;;7.60;4.57;;;13.40;99.90;;;;;;10211376;29;20241;-81
2023/03/31 00:46:17;;;;;;;4.67;3.90;;;13.40;99.90;;;;;;10225921;29;20309;-80
2023/03/31 00:51:22;;;;;;;5.40;3.90;;;13.10;99.90;;;;;;10196647;29;20287;-81
2023/03/31 00:56:29;;;;;;;4.37;3.27;;;13.30;99.90;;;;;;10212393;29;20238;-81
2023/03/31 01:01:34;;;;;;;4.77;3.50;;;13.60;99.90;;;;;;10210500;29;20296;-81
2023/03/31 01:06:46;;;;;;;6.53;2.67;;;13.40;99.90;;;;;;10210917;29;20630;-81
2023/03/31 01:11:50;;;;;;;4.73;3.30;;;13.70;99.90;;;;;;10199811;29;20230;-81
2023/03/31 01:16:53;;;;;;;3.47;2.33;;;14.00;99.90;;;;;;10194209;29;20249;-81
2023/03/31 01:22:28;;;;;;;5.90;3.77;;;14.60;99.90;;;;;;10210287;29;20245;-81
2023/03/31 01:28:07;;;;;;;2.97;2.30;;;14.70;99.90;;;;;;10209643;29;20266;-81
2023/03/31 01:33:35;;;;;;;3.40;2.57;;;14.90;99.90;;;;;;9997255;29;20294;-81
2023/03/31 01:38:52;;;;;;;6.07;3.60;;;14.90;99.90;;;;;;10051100;29;20308;-81
2023/03/31 01:43:55;;;;;;;4.67;3.87;;;14.40;99.90;;;;;;10020124;29;20297;-81
2023/03/31 01:49:09;;;;;;;4.83;3.93;;;13.90;99.90;;;;;;10016711;29;20274;-81
2023/03/31 01:54:38;;;;;;;6.33;3.53;;;13.40;99.90;;;;;;10018628;29;20337;-81
2023/03/31 01:59:55;;;;;;;6.23;3.03;;;13.60;99.90;;;;;;9987886;29;20240;-81
2023/03/31 02:05:04;;;;;;;4.97;3.73;;;14.00;99.90;;;;;;10056372;29;20310;-81
2023/03/31 02:10:08;;;;;;;4.80;3.60;;;13.40;99.90;;;;;;10198665;29;20316;-81
2023/03/31 02:15:17;;;;;;;6.10;4.03;;;12.40;99.90;;;;;;10206062;29;20262;-81
2023/03/31 02:20:22;;;;;;;4.03;3.00;;;12.20;99.90;;;;;;10203114;29;20248;-81
2023/03/31 02:25:33;;;;;;;5.33;3.40;;;12.20;99.90;;;;;;10208551;29;20253;-81
2023/03/31 02:31:08;;;;;;;7.13;4.97;;;12.20;99.90;;;;;;10191619;29;20246;-81
2023/03/31 02:36:11;;;;;;;5.57;4.20;;;12.20;99.90;;;;;;10203449;29;20240;-81
2023/03/31 02:41:13;;;;;;;5.33;3.90;;;12.50;99.90;;;;;;10191094;29;20235;-81
2023/03/31 02:46:16;;;;;;;14.47;6.10;;;12.30;99.90;;;;;;10206644;29;20335;-80
2023/03/31 02:51:43;;;;;;;5.17;3.43;;;11.60;99.90;;;;;;10207039;29;20235;-81
2023/03/31 02:57:27;;;;;;;5.43;2.80;;;11.70;99.90;;;;;;10205897;29;20288;-81
2023/03/31 03:03:06;;;;;;;3.47;2.63;;;12.10;99.90;;;;;;10045465;29;20270;-81
2023/03/31 03:08:22;;;;;;;4.03;2.90;;;12.60;99.90;;;;;;10015833;29;20369;-81
2023/03/31 03:13:35;;;;;;;3.93;2.67;;;13.10;99.90;;;;;;10034121;29;20318;-81
2023/03/31 03:18:38;;;;;;;5.60;3.37;;;13.20;99.90;;;;;;10030160;29;20317;-81
2023/03/31 03:23:42;;;;;;;5.47;2.97;;;12.40;99.90;;;;;;10031759;29;20241;-81
2023/03/31 03:28:44;;;;;;;3.73;2.70;;;12.30;99.90;;;;;;10030407;29;20291;-81
2023/03/31 03:33:47;;;;;;;2.30;1.90;;;12.50;99.90;;;;;;10160665;29;20240;-81
2023/03/31 03:38:49;;;;;;;4.37;2.60;;;12.50;99.90;;;;;;10206530;29;20282;-81
2023/03/31 03:43:52;;;;;;;5.03;3.30;;;13.00;99.90;;;;;;10201733;29;20249;-81
2023/03/31 03:48:55;;;;;;;5.70;4.17;;;13.00;99.90;;;;;;10206408;29;20337;-81
2023/03/31 03:53:57;;;;;;;3.87;2.97;;;12.80;99.90;;;;;;10203149;29;20667;-81
2023/03/31 03:59:00;;;;;;;3.50;2.80;;;12.30;99.90;;;;;;10205772;29;20626;-81
2023/03/31 04:04:03;;;;;;;4.27;2.70;;;12.10;99.90;;;;;;10196798;29;20692;-81
2023/03/31 04:09:06;;;;;;;5.23;3.07;;;12.20;99.90;;;;;;10205593;29;20265;-81
2023/03/31 04:14:09;;;;;;;4.07;2.67;;;12.50;99.90;;;;;;10200599;29;20297;-81
2023/03/31 04:19:16;;;;;;;5.77;4.57;;;12.40;99.90;;;;;;10205663;29;20677;-81
2023/03/31 04:24:20;;;;;;;3.93;2.87;;;12.70;99.90;;;;;;10205129;29;20257;-81
2023/03/31 04:29:25;;;;;;;3.80;3.40;;;12.80;99.90;;;;;;10203833;29;20605;-81
2023/03/31 04:34:33;;;;;;;5.70;3.40;;;12.30;99.90;;;;;;10204495;29;20242;-81
2023/03/31 04:39:37;;;;;;;6.53;4.63;;;12.40;99.90;;;;;;10210745;29;20698;-80
2023/03/31 04:44:39;;;;;;;4.87;4.03;;;12.10;99.90;;;;;;10176583;29;20759;-81
2023/03/31 04:49:42;;;;;;;3.37;2.70;;;12.00;99.90;;;;;;10210031;29;20321;-80
2023/03/31 04:54:44;;;;;;;4.63;2.37;;;12.20;99.90;;;;;;10213594;29;20238;-80
2023/03/31 04:59:47;;;;;;;3.00;1.97;;;12.10;99.90;;;;;;10213001;29;20248;-80
2023/03/31 05:04:50;;;;;;;2.87;2.40;;;12.10;99.90;;;;;;10211029;29;20252;-80
2023/03/31 05:09:53;;;;;;;5.07;2.70;;;12.10;99.90;;;;;;10238019;29;20260;-80
2023/03/31 05:14:55;;;;;;;6.63;3.77;;;12.00;99.90;;;;;;10210024;29;20240;-80
2023/03/31 05:19:58;;;;;;;4.80;3.63;;;12.30;99.90;;;;;;10209315;29;20700;-80
2023/03/31 05:25:02;;;;;;;5.77;3.30;;;11.90;99.90;;;;;;10209648;29;20684;-80
2023/03/31 05:30:07;;;;;;;2.83;2.17;;;11.90;99.90;;;;;;10205446;29;20321;-80
2023/03/31 05:35:10;;;;;;;9.97;3.90;;;12.30;99.90;;;;;;10208780;29;20237;-80
2023/03/31 05:40:12;;;;;;;5.97;4.43;;;12.30;99.90;;;;;;10208210;29;20244;-80
2023/03/31 05:45:15;;;;;;;6.73;4.10;;;12.30;99.90;;;;;;10208551;29;20311;-81
2023/03/31 05:50:18;;;;;;;7.40;5.33;;;12.00;99.90;;;;;;10208188;29;20262;-81
2023/03/31 05:55:20;;;;;;;10.20;6.70;;;11.50;99.90;;;;;;10208936;29;20239;-81
2023/03/31 06:00:23;;;;;;;11.87;6.00;;;10.50;99.90;;;;;;10210143;29;20235;-81
2023/03/31 06:05:26;;;;;;;9.27;5.30;;;10.20;99.90;;;;;;10207855;29;20647;-81
2023/03/31 06:10:29;;;;;;;10.33;6.13;;;9.90;99.90;;;;;;10203486;29;20263;-81
2023/03/31 06:15:32;;;;;;;12.07;5.50;;;9.80;99.90;;;;;;10170347;29;20227;-80
2023/03/31 06:20:35;;;;;;;10.27;5.30;;;9.90;99.90;;;;;;10169710;29;20656;-81
2023/03/31 06:25:38;;;;;;;8.77;4.17;;;9.90;99.90;;;;;;10197115;29;20628;-80
2023/03/31 06:31:04;;;;;;;4.97;3.93;;;10.00;99.90;;;;;;10207731;29;20249;-80
2023/03/31 06:36:08;;;;;;;9.73;3.93;;;10.10;99.90;;;;;;10208760;29;20293;-81
2023/03/31 06:41:13;;;;;;;7.37;4.27;;;10.20;99.90;;;;;;10208466;29;20226;-81
2023/03/31 06:46:16;;;;;;;8.00;4.73;;;10.30;99.90;;;;;;10202668;29;20286;-81
2023/03/31 06:51:19;;;;;;;7.63;4.10;;;10.30;99.90;;;;;;10203658;29;20242;-81
2023/03/31 06:56:22;;;;;;;5.57;4.40;;;10.40;99.90;;;;;;10213352;29;20306;-80
2023/03/31 07:01:24;;;;;;;13.07;5.50;;;10.50;99.90;;;;;;10223947;28;20567;-80
2023/03/31 07:06:27;;;;;;;10.60;6.50;;;10.60;99.90;;;;;;10226362;29;20237;-80
2023/03/31 07:11:30;;;;;;;4.43;2.73;;;10.70;99.90;;;;;;10227253;29;20239;-80
2023/03/31 07:16:32;;;;;;;3.37;2.33;;;11.10;99.90;;;;;;10194995;29;20623;-80
2023/03/31 07:21:36;;;;;;;11.33;4.53;;;11.30;99.90;;;;;;10202655;29;20334;-81
2023/03/31 07:26:39;;;;;;;8.00;3.13;;;11.80;99.90;;;;;;10201905;29;20310;-82
2023/03/31 07:31:41;;;;;;;7.90;3.43;;;12.30;99.90;;;;;;10196200;29;20631;-81
2023/03/31 07:36:44;;;;;;;5.53;2.77;;;13.10;99.90;;;;;;10204951;29;20679;-82
2023/03/31 07:41:46;;;;;;;6.00;3.27;;;13.80;99.90;;;;;;10202648;29;20238;-82
2023/03/31 07:46:49;;;;;;;2.73;1.70;;;14.20;99.90;;;;;;10204118;29;20317;-82
2023/03/31 07:51:52;;;;;;;3.90;2.27;;;14.50;99.90;;;;;;10188567;29;20303;-82
2023/03/31 07:56:54;;;;;;;7.73;3.37;;;14.90;99.90;;;;;;10205018;29;20335;-82
2023/03/31 08:01:57;;;;;;;3.73;2.40;;;15.10;99.90;;;;;;10205099;29;20246;-81
2023/03/31 08:07:00;;;;;;;5.17;2.30;;;15.70;99.90;;;;;;10203654;29;20253;-84
2023/03/31 08:12:04;;;;;;;5.40;2.90;;;15.80;99.90;;;;;;10208109;29;20452;-84
2023/03/31 08:17:07;;;;;;;6.23;2.10;;;15.60;99.90;;;;;;10212443;29;20697;-81
2023/03/31 08:22:09;;;;;;;3.77;1.00;;;15.50;99.90;;;;;;10207258;29;20266;-81
2023/03/31 08:27:12;;;;;;;3.83;2.77;;;15.50;99.90;;;;;;10212004;29;20280;-81
2023/03/31 08:32:16;;;;;;;4.83;1.73;;;16.10;99.90;;;;;;10210770;29;20293;-81
2023/03/31 08:37:19;;;;;;;4.10;2.10;;;16.10;99.90;;;;;;10210533;29;20262;-81
2023/03/31 08:42:40;;;;;;;1.17;0.90;;;16.30;99.70;;;;;;10208868;29;20295;-81
2023/03/31 08:47:45;;;;;;;3.53;1.50;;;16.60;99.90;;;;;;10211403;29;20709;-81
2023/03/31 08:53:00;;;;;;;5.47;1.97;;;16.80;99.90;;;;;;10210033;29;20240;-80
2023/03/31 08:58:17;;;;;;;2.73;1.77;;;16.90;99.40;;;;;;10210838;29;20244;-81
2023/03/31 09:03:35;;;;;;;6.30;2.97;;;17.00;99.30;;;;;;10209894;29;20313;-81
2023/03/31 09:08:40;;;;;;;2.43;1.53;;;17.10;98.10;;;;;;10208051;29;20312;-82
2023/03/31 09:14:09;;;;;;;3.93;2.10;;;17.20;98.40;;;;;;10210831;29;21012;-82
2023/03/31 09:19:39;;;;;;;2.97;2.13;;;17.10;96.40;;;;;;10208952;29;20294;-81
2023/03/31 09:25:04;;;;;;;4.87;2.20;;;17.20;97.20;;;;;;10209249;29;20289;-83
2023/03/31 09:30:22;;;;;;;6.87;2.63;;;16.80;97.70;;;;;;10208139;29;20687;-82
2023/03/31 09:35:25;;;;;;;5.57;2.93;;;16.90;98.10;;;;;;10206382;29;20249;-83
2023/03/31 09:40:29;;;;;;;5.27;3.57;;;17.00;96.50;;;;;;10209891;29;20231;-84
2023/03/31 09:45:35;;;;;;;10.17;3.37;;;16.90;95.70;;;;;;10210877;29;20644;-81
2023/03/31 09:51:04;;;;;;;10.20;3.97;;;15.90;95.00;;;;;;10203941;29;20274;-80
2023/03/31 09:56:10;;;;;;;5.83;3.20;;;15.40;96.80;;;;;;10203351;29;20293;-82
2023/03/31 10:01:14;;;;;;;7.83;3.47;;;15.80;99.20;;;;;;10209218;29;20608;-83
2023/03/31 10:06:17;;;;;;;4.70;2.83;;;16.30;97.00;;;;;;10206822;29;20322;-83
2023/03/31 10:11:20;;;;;;;5.53;2.77;;;16.50;95.80;;;;;;10208847;29;21142;-83
2023/03/31 10:16:30;;;;;;;8.03;2.90;;;16.80;94.70;;;;;;10209492;29;20646;-83
2023/03/31 10:21:36;;;;;;;6.63;3.73;;;16.90;95.20;;;;;;10208888;29;20270;-83
2023/03/31 10:26:39;;;;;;;8.97;3.80;;;16.90;94.00;;;;;;10208473;29;20247;-82
2023/03/31 10:31:42;;;;;;;7.13;3.53;;;17.00;94.80;;;;;;10208770;29;20686;-82
2023/03/31 10:36:48;;;;;;;7.73;4.10;;;17.00;94.50;;;;;;10207649;29;20245;-83
2023/03/31 10:41:52;;;;;;;11.83;4.23;;;17.00;93.80;;;;;;10205743;29;20653;-83
2023/03/31 10:46:54;;;;;;;7.17;3.00;;;16.90;93.70;;;;;;10204536;29;20237;-82
2023/03/31 10:52:00;;;;;;;7.80;4.93;;;16.90;94.40;;;;;;10205424;29;20290;-82
2023/03/31 10:57:05;;;;;;;9.47;3.03;;;16.90;93.20;;;;;;10206864;29;20265;-82
2023/03/31 11:02:47;;;;;;;8.33;4.20;;;17.00;94.40;;;;;;10213342;29;20636;-82
2023/03/31 11:08:03;;;;;;;10.63;4.30;;;17.40;93.70;;;;;;10193265;29;20329;-82
2023/03/31 11:13:37;;;;;;;5.70;3.10;;;17.40;92.70;;;;;;10183288;29;20239;-82
2023/03/31 11:19:02;;;;;;;9.47;2.87;;;17.60;93.80;;;;;;10170693;29;20290;-80
2023/03/31 11:24:23;;;;;;;5.57;2.37;;;17.50;91.20;;;;;;10168208;29;20732;-81
2023/03/31 11:30:03;;;;;;;7.47;3.40;;;17.60;89.90;;;;;;10166763;29;20313;-81
2023/03/31 11:35:34;;;;;;;7.27;2.03;;;17.50;90.60;;;;;;10205181;29;20287;-81
2023/03/31 11:40:43;;;;;;;5.83;2.50;;;17.70;92.40;;;;;;10204124;29;20303;-80
2023/03/31 11:45:52;;;;;;;7.57;2.23;;;17.80;91.00;;;;;;10204123;29;20243;-81
2023/03/31 11:50:57;;;;;;;6.13;2.97;;;17.70;91.80;;;;;;10202988;29;20254;-82
2023/03/31 11:56:01;;;;;;;4.90;2.60;;;17.30;87.80;;;;;;10174661;29;20237;-81
2023/03/31 12:01:21;;;;;;;3.67;2.90;;;16.80;90.80;;;;;;10180060;29;20614;-81
2023/03/31 12:06:29;;;;;;;6.10;3.07;;;16.50;91.10;;;;;;10193089;29;20687;-82
2023/03/31 12:11:35;;;;;;;6.57;3.40;;;16.10;91.90;;;;;;10178088;29;20329;-82
2023/03/31 12:16:45;;;;;;;5.67;2.90;;;15.80;93.30;;;;;;10205120;29;20235;-81
2023/03/31 12:22:16;;;;;;;6.33;3.67;;;15.70;93.20;;;;;;10201726;29;20680;-81
2023/03/31 12:27:41;;;;;;;10.20;4.70;;;15.50;93.70;;;;;;10193810;29;20251;-81
2023/03/31 12:32:48;;;;;;;5.70;4.37;;;15.20;95.00;;;;;;10196618;29;20239;-81
2023/03/31 12:38:06;;;;;;;8.23;4.83;;;15.00;98.50;;;;;;10190608;29;20228;-80
2023/03/31 12:43:33;;;;;;;6.00;4.07;;;14.80;99.00;;;;;;10201653;29;20289;-81
2023/03/31 12:49:03;;;;;;;8.57;5.17;;;14.70;99.60;;;;;;10203371;29;20314;-80
2023/03/31 12:54:41;;;;;;;6.13;5.20;;;14.70;99.90;;;;;;10187609;29;20244;-80
2023/03/31 12:59:45;;;;;;;8.57;5.03;;;14.50;99.90;;;;;;10186652;29;20701;-81
2023/03/31 13:04:52;;;;;;;8.57;4.80;;;14.40;99.90;;;;;;10209740;29;20618;-81
2023/03/31 13:10:20;;;;;;;7.53;5.57;;;14.30;99.90;;;;;;10207093;29;20727;-82
2023/03/31 13:15:23;;;;;;;5.40;3.60;;;14.20;99.90;;;;;;10185809;29;20634;-81
2023/03/31 13:20:31;;;;;;;7.93;4.47;;;14.20;99.90;;;;;;10176869;29;20257;-82
2023/03/31 13:25:50;;;;;;;6.57;4.80;;;14.30;99.90;;;;;;10206177;29;20250;-81
2023/03/31 13:30:59;;;;;;;12.50;5.70;;;14.20;99.90;;;;;;10188317;29;20710;-81
2023/03/31 13:36:06;;;;;;;11.90;6.27;;;14.30;99.90;;;;;;10213264;29;20231;-82
2023/03/31 13:41:23;;;;;;;9.80;5.70;;;14.40;99.90;;;;;;10206077;29;20247;-82
2023/03/31 13:46:44;;;;;;;7.63;4.60;;;14.50;99.90;;;;;;10206042;29;20777;-87
2023/03/31 13:52:00;;;;;;;10.67;4.60;;;14.70;99.90;;;;;;10207103;29;20321;-81
2023/03/31 13:57:18;;;;;;;5.73;4.37;;;14.80;99.90;;;;;;10209102;29;20238;-81
2023/03/31 14:02:39;;;;;;;7.27;4.80;;;14.90;99.90;;;;;;10202616;29;20250;-82
2023/03/31 14:07:54;;;;;;;8.17;4.87;;;15.00;99.90;;;;;;10202909;29;20296;-83
2023/03/31 14:13:11;;;;;;;7.67;4.73;;;15.10;99.90;;;;;;10193596;29;20239;-85
2023/03/31 14:18:45;;;;;;;7.37;5.17;;;15.20;99.90;;;;;;10203814;29;20274;-83
2023/03/31 14:23:53;;;;;;;10.03;5.70;;;15.20;99.90;;;;;;10206413;29;20255;-83
2023/03/31 14:29:01;;;;;;;9.20;5.07;;;15.10;99.90;;;;;;10206559;29;20892;-82
2023/03/31 14:34:38;;;;;;;6.53;4.97;;;15.10;99.90;;;;;;10203974;29;21006;-83
2023/03/31 14:39:55;;;;;;;8.50;5.23;;;15.00;99.90;;;;;;10204805;29;20313;-84
2023/03/31 14:45:03;;;;;;;9.47;5.33;;;15.00;99.90;;;;;;10207022;29;20243;-84
2023/03/31 14:50:14;;;;;;;9.23;5.07;;;14.90;99.90;;;;;;10203533;29;20711;-83
2023/03/31 14:55:21;;;;;;;5.23;2.20;;;14.80;99.90;;;;;;10204985;29;20286;-83
2023/03/31 15:00:31;;;;;;;3.27;0.90;;;14.60;98.30;;;;;;10207768;29;20248;-83
2023/03/31 15:05:36;;;;;;;1.43;1.10;;;14.20;99.90;;;;;;10206771;29;20295;-85
2023/03/31 15:10:44;;;;;;;3.60;2.10;;;13.80;99.90;;;;;;10212447;29;20257;-83
2023/03/31 15:15:47;;;;;;;3.73;2.67;;;13.50;99.90;;;;;;10213662;29;20222;-87
2023/03/31 15:20:49;;;;;;;6.43;2.43;;;13.40;99.90;;;;;;10206302;29;20272;-87
2023/03/31 15:26:07;;;;;;;4.73;3.50;;;13.30;99.90;;;;;;10207122;29;20255;-86
2023/03/31 15:31:10;;;;;;;9.43;4.40;;;13.20;99.90;;;;;;10206636;29;20655;-86
2023/03/31 15:36:13;;;;;;;6.20;4.30;;;13.10;99.90;;;;;;10205044;29;20243;-87
2023/03/31 15:41:17;;;;;;;5.17;3.60;;;13.00;99.90;;;;;;10172384;29;20617;-85
2023/03/31 15:46:44;;;;;;;9.10;5.07;;;13.00;99.90;;;;;;10199589;29;20634;-85
2023/03/31 15:51:47;;;;;;;8.77;5.10;;;13.00;99.90;;;;;;10199977;29;20255;-88
2023/03/31 15:56:55;;;;;;;10.53;6.53;;;12.90;99.90;;;;;;10204450;29;20239;-87
2023/03/31 16:02:02;;;;;;;9.37;5.97;;;12.90;99.90;;;;;;10205845;29;20309;-87
2023/03/31 16:07:08;;;;;;;7.20;4.87;;;12.80;99.90;;;;;;10200234;29;20669;-87
2023/03/31 16:12:20;;;;;;;10.90;6.57;;;12.90;99.90;;;;;;10204127;29;20401;-87
2023/03/31 16:17:52;;;;;;;6.70;5.07;;;13.00;99.90;;;;;;10197296;29;20223;-88
2023/03/31 16:23:00;;;;;;;6.83;5.67;;;13.00;99.90;;;;;;10195564;29;20294;-88
2023/03/31 16:28:04;;;;;;;7.00;5.07;;;12.90;99.90;;;;;;10183467;29;20642;-87
2023/03/31 16:33:12;;;;;;;6.00;4.60;;;12.90;99.90;;;;;;10209130;29;20744;-89
2023/03/31 16:38:15;;;;;;;8.23;5.57;;;12.80;99.90;;;;;;10207715;29;20224;-87
2023/03/31 16:43:20;;;;;;;9.30;6.40;;;12.80;99.90;;;;;;10197013;29;20239;-85
2023/03/31 16:48:24;;;;;;;8.50;6.20;;;12.60;99.90;;;;;;10173429;29;20305;-87
2023/03/31 16:53:33;;;;;;;10.23;7.23;;;12.40;99.90;;;;;;10205306;29;20983;-84
2023/03/31 16:58:37;;;;;;;12.97;7.37;;;12.40;99.90;;;;;;10210834;29;20244;-85
2023/03/31 17:03:40;;;;;;;12.83;8.97;;;12.30;99.90;;;;;;10211738;29;20648;-86
2023/03/31 17:08:43;;;;;;;19.23;8.90;;;12.10;99.90;;;;;;10211980;29;20247;-84
2023/03/31 17:13:47;;;;;;;9.97;7.10;;;12.10;99.90;;;;;;10208013;29;20251;-81
2023/03/31 17:18:50;;;;;;;17.07;9.93;;;12.20;99.90;;;;;;10211144;29;20259;-81
2023/03/31 17:23:53;;;;;;;21.50;12.27;;;12.50;99.90;;;;;;10210296;29;20302;-82
2023/03/31 17:28:56;;;;;;;13.80;8.27;;;12.50;99.90;;;;;;10210300;29;20227;-82
2023/03/31 17:34:00;;;;;;;6.53;4.23;;;12.60;99.90;;;;;;10210591;29;20292;-85
2023/03/31 17:39:03;;;;;;;9.27;6.93;;;12.60;99.90;;;;;;10209705;29;20297;-82
2023/03/31 17:44:07;;;;;;;13.03;9.17;;;12.80;99.90;;;;;;10210204;29;20222;-82
2023/03/31 17:49:10;;;;;;;9.20;6.63;;;12.80;99.90;;;;;;10210342;29;20253;-82
2023/03/31 17:54:13;;;;;;;11.63;7.30;;;12.80;99.90;;;;;;10209371;29;20239;-82
2023/03/31 17:59:19;;;;;;;2.73;2.33;;;12.80;99.90;;;;;;10208752;29;20295;-81
2023/03/31 18:04:23;;;;;;;8.80;5.47;;;13.10;99.90;;;;;;10205782;29;20246;-81
2023/03/31 18:09:26;;;;;;;5.43;4.07;;;13.50;99.90;;;;;;10207872;29;20790;-82
2023/03/31 18:14:29;;;;;;;8.50;6.30;;;13.70;99.90;;;;;;10171422;29;20246;-81
2023/03/31 18:19:32;;;;;;;15.13;9.47;;;13.30;99.90;;;;;;10213971;29;20270;-81
2023/03/31 18:24:37;;;;;;;13.07;9.63;;;12.60;99.90;;;;;;10203302;29;20242;-80
2023/03/31 18:29:40;;;;;;;17.63;10.50;;;;;;;;;;10207068;29;20328;-80
2023/03/31 18:34:42;;;;;;;17.00;10.47;;;11.00;99.90;;;;;;10197067;29;20239;-83
2023/03/31 18:39:45;;;;;;;20.43;11.77;;;10.80;99.90;;;;;;10206351;29;20239;-82
2023/03/31 18:44:47;;;;;;;29.87;16.93;;;10.70;99.90;;;;;;10206496;29;20246;-80
2023/03/31 18:49:54;;;;;;;32.77;20.30;;;10.40;99.90;;;;;;10202767;29;20305;-79
2023/03/31 18:54:57;;;;;;;37.50;20.70;;;10.20;99.90;;;;;;10204884;29;20234;-82
2023/03/31 19:00:00;;;;;;;40.23;21.23;;;10.10;99.90;;;;;;10205053;29;20688;-81
2023/03/31 19:05:03;;;;;;;32.07;16.97;;;10.00;99.90;;;;;;10205655;29;20242;-79
2023/03/31 19:10:07;;;;;;;18.90;12.20;;;10.00;99.90;;;;;;10207291;29;20305;-81
2023/03/31 19:15:09;;;;;;;25.03;16.67;;;10.10;99.90;;;;;;10206844;29;20235;-82
2023/03/31 19:20:15;;;;;;;22.70;13.63;;;10.10;99.90;;;;;;10198955;29;20273;-83
2023/03/31 19:25:19;;;;;;;17.03;11.97;;;10.00;99.90;;;;;;10206780;29;20207;-80
2023/03/31 19:30:23;;;;;;;18.83;13.00;;;10.00;99.90;;;;;;10208398;29;20602;-80
2023/03/31 19:35:28;;;;;;;22.43;14.33;;;9.90;99.90;;;;;;10209621;29;20274;-82
2023/03/31 19:40:31;;;;;;;21.97;15.53;;;9.90;99.90;;;;;;10204708;29;20289;-82
2023/03/31 19:45:35;;;;;;;24.77;15.83;;;9.90;99.90;;;;;;10205482;29;20681;-82
2023/03/31 19:50:38;;;;;;;23.73;16.83;;;9.80;99.90;;;;;;10205558;29;20329;-81
2023/03/31 19:55:41;;;;;;;28.30;18.20;;;9.70;99.90;;;;;;10202250;29;20234;-80
2023/03/31 20:00:44;;;;;;;28.67;19.67;;;9.60;99.90;;;;;;10208711;29;20234;-81
2023/03/31 20:05:47;;;;;;;30.03;21.17;;;9.60;99.90;;;;;;10224234;29;20274;-79
2023/03/31 20:10:50;;;;;;;36.27;22.47;;;9.60;99.90;;;;;;10214441;29;20242;-81
2023/03/31 20:16:03;;;;;;;35.60;22.23;;;9.60;99.90;;;;;;10210155;29;20287;-82
2023/03/31 20:21:10;;;;;;;30.00;20.37;;;9.50;99.90;;;;;;10211161;29;20253;-81
2023/03/31 20:26:16;;;;;;;29.00;18.93;;;9.50;99.90;;;;;;10214007;29;20293;-80
2023/03/31 20:31:28;;;;;;;26.93;17.83;;;9.60;99.90;;;;;;10212913;29;20321;-81
2023/03/31 20:36:32;;;;;;;28.80;17.60;;;9.60;99.90;;;;;;10211701;29;20753;-82
2023/03/31 20:41:36;;;;;;;28.27;18.03;;;9.60;99.90;;;;;;10210437;29;20302;-81
2023/03/31 20:46:39;;;;;;;25.20;16.93;;;9.60;99.90;;;;;;10212849;29;20238;-81
2023/03/31 20:51:42;;;;;;;30.70;18.93;;;9.60;99.90;;;;;;10207278;29;20778;-81
2023/03/31 20:56:45;;;;;;;22.17;15.23;;;9.70;99.90;;;;;;10212462;29;20234;-81
2023/03/31 21:01:48;;;;;;;13.30;9.87;;;9.80;99.90;;;;;;10209378;29;20641;-81
2023/03/31 21:06:52;;;;;;;20.47;12.07;;;9.80;99.90;;;;;;10204048;29;20637;-80
2023/03/31 21:11:55;;;;;;;14.83;10.60;;;9.90;99.90;;;;;;10206405;29;20338;-80
2023/03/31 21:16:57;;;;;;;14.67;10.63;;;10.00;99.90;;;;;;10210026;29;20804;-80
2023/03/31 21:22:00;;;;;;;17.33;10.60;;;10.10;99.90;;;;;;10199791;29;20262;-81
2023/03/31 21:27:03;;;;;;;11.17;8.30;;;10.00;99.90;;;;;;10182776;29;20615;-80
2023/03/31 21:32:05;;;;;;;14.67;10.90;;;10.10;99.90;;;;;;10184109;29;20262;-81
2023/03/31 21:37:08;;;;;;;15.80;9.80;;;9.90;99.90;;;;;;10207975;29;20238;-80
2023/03/31 21:42:12;;;;;;;13.07;9.50;;;10.00;99.90;;;;;;10209529;29;20248;-80
2023/03/31 21:47:15;;;;;;;12.83;8.43;;;10.00;99.90;;;;;;10210616;29;20248;-80
2023/03/31 21:52:18;;;;;;;7.00;6.30;;;10.10;99.90;;;;;;10207248;29;20263;-80
2023/03/31 21:57:20;;;;;;;10.70;8.53;;;10.20;99.90;;;;;;10201226;29;20286;-81
2023/03/31 22:02:23;;;;;;;10.07;7.67;;;10.40;99.90;;;;;;10206552;29;20259;-82
2023/03/31 22:07:25;;;;;;;8.57;6.43;;;10.30;99.90;;;;;;10193582;29;20317;-81
2023/03/31 22:12:29;;;;;;;9.73;7.37;;;10.30;99.90;;;;;;10202293;29;20254;-81
2023/03/31 22:17:32;;;;;;;11.17;7.27;;;10.20;99.90;;;;;;10208696;29;20212;-80
2023/03/31 22:22:38;;;;;;;8.23;7.33;;;10.10;99.90;;;;;;10210192;29;20306;-81
2023/03/31 22:27:41;;;;;;;10.43;7.27;;;10.00;99.90;;;;;;10206317;29;20235;-81
2023/03/31 22:32:43;;;;;;;9.90;7.80;;;10.00;99.90;;;;;;10206332;29;20306;-81
2023/03/31 22:37:46;;;;;;;11.17;7.53;;;9.90;99.90;;;;;;10209117;29;20234;-81
2023/03/31 22:42:49;;;;;;;9.10;7.27;;;9.70;99.90;;;;;;10207695;29;20685;-81
2023/03/31 22:47:51;;;;;;;10.07;7.33;;;9.60;99.90;;;;;;10207452;29;20246;-81
2023/03/31 22:52:54;;;;;;;9.07;7.70;;;9.60;99.90;;;;;;10207356;29;20318;-81
2023/03/31 22:57:56;;;;;;;10.80;8.13;;;9.50;99.90;;;;;;10202669;29;20235;-81
2023/03/31 23:02:59;;;;;;;10.33;7.77;;;9.50;99.90;;;;;;10207592;29;20275;-81
2023/03/31 23:08:02;;;;;;;12.67;8.53;;;9.40;99.90;;;;;;10207911;29;20610;-81
2023/03/31 23:13:05;;;;;;;8.03;7.23;;;9.40;99.90;;;;;;10207931;29;20321;-81
2023/03/31 23:18:08;;;;;;;7.73;6.17;;;9.40;99.90;;;;;;10206386;29;20317;-81
2023/03/31 23:23:11;;;;;;;8.17;6.73;;;9.50;99.90;;;;;;10198473;29;20242;-81
2023/03/31 23:28:13;;;;;;;8.87;7.03;;;9.70;99.90;;;;;;10203680;29;20239;-81
2023/03/31 23:33:16;;;;;;;8.67;5.93;;;9.60;99.90;;;;;;10167956;29;20251;-81
2023/03/31 23:38:19;;;;;;;9.63;6.00;;;9.60;99.90;;;;;;10205571;29;20630;-81
2023/03/31 23:43:24;;;;;;;8.53;5.90;;;9.50;99.90;;;;;;10206053;29;20681;-81
2023/03/31 23:48:26;;;;;;;6.17;4.73;;;9.40;99.90;;;;;;10204581;29;20333;-81
2023/03/31 23:53:29;;;;;;;5.47;4.57;;;9.50;99.90;;;;;;10206650;29;20290;-81
2023/03/31 23:58:32;;;;;;;7.07;4.87;;;9.50;99.90;;;;;;10206589;29;20292;-81
